createdAt,value
2023-05-10T00:01:20.742Z,9.64
2023-05-10T00:03:02.148Z,9.52
2023-05-10T00:04:43.519Z,9.47
2023-05-10T00:06:24.830Z,9.38
2023-05-10T00:08:06.122Z,9.42
2023-05-10T00:09:47.410Z,9.29
2023-05-10T00:11:28.702Z,9.55
2023-05-10T00:13:10.032Z,9.72
2023-05-10T00:14:51.394Z,9.74
2023-05-10T00:16:32.733Z,9.64
2023-05-10T00:18:14.050Z,9.86
2023-05-10T00:19:55.329Z,9.91
2023-05-10T00:21:36.604Z,9.75
2023-05-10T00:23:17.924Z,9.61
2023-05-10T00:24:59.245Z,9.48
2023-05-10T00:26:40.519Z,9.17
2023-05-10T00:28:21.812Z,8.56
2023-05-10T00:30:03.094Z,8.33
2023-05-10T00:31:44.397Z,8.66
2023-05-10T00:33:25.774Z,8.94
2023-05-10T00:35:07.091Z,8.78
2023-05-10T00:36:48.360Z,9.27
2023-05-10T00:38:29.680Z,9.53
2023-05-10T00:40:11.008Z,9.33
2023-05-10T00:41:52.306Z,9.53
2023-05-10T00:43:33.625Z,9.67
2023-05-10T00:45:14.907Z,9.34
2023-05-10T00:46:56.218Z,9.16
2023-05-10T00:48:37.517Z,9.35
2023-05-10T00:50:19.010Z,9.43
2023-05-10T00:52:00.413Z,9.73
2023-05-10T00:53:41.713Z,9.81
2023-05-10T00:55:23.026Z,10.06
2023-05-10T00:57:04.364Z,9.68
2023-05-10T00:58:45.649Z,9.97
2023-05-10T01:00:26.957Z,9.91
2023-05-10T01:02:08.336Z,10.01
2023-05-10T01:03:49.645Z,9.97
2023-05-10T01:05:30.990Z,10.21
2023-05-10T01:07:12.380Z,10.34
2023-05-10T01:08:53.672Z,10.47
2023-05-10T01:10:34.968Z,10.10
2023-05-10T01:12:16.318Z,10.06
2023-05-10T01:13:57.664Z,10.26
2023-05-10T01:15:39.045Z,10.29
2023-05-10T01:17:20.478Z,10.48
2023-05-10T01:19:01.839Z,10.62
2023-05-10T01:20:43.195Z,10.59
2023-05-10T01:22:24.546Z,10.48
2023-05-10T01:24:05.858Z,10.40
2023-05-10T01:25:47.217Z,10.62
2023-05-10T01:27:29.912Z,10.09
2023-05-10T01:29:11.210Z,10.10
2023-05-10T01:30:52.537Z,9.90
2023-05-10T01:32:33.878Z,9.82
2023-05-10T01:34:15.227Z,9.72
2023-05-10T01:35:56.544Z,9.72
2023-05-10T01:37:37.846Z,9.58
2023-05-10T01:39:19.146Z,9.48
2023-05-10T01:41:00.425Z,9.10
2023-05-10T01:42:41.738Z,8.79
2023-05-10T01:44:23.007Z,8.25
2023-05-10T01:46:04.340Z,8.40
2023-05-10T01:47:45.651Z,8.09
2023-05-10T01:49:26.964Z,8.20
2023-05-10T01:51:08.266Z,8.19
2023-05-10T01:52:49.553Z,8.15
2023-05-10T01:54:30.848Z,8.19
2023-05-10T01:56:12.158Z,7.83
2023-05-10T01:57:53.495Z,7.83
2023-05-10T01:59:34.824Z,7.85
2023-05-10T02:01:16.170Z,7.62
2023-05-10T02:02:57.571Z,7.55
2023-05-10T02:04:38.901Z,7.83
2023-05-10T02:06:20.198Z,7.65
2023-05-10T02:08:01.475Z,7.71
2023-05-10T02:09:42.786Z,7.64
2023-05-10T02:11:24.080Z,7.84
2023-05-10T02:13:05.376Z,7.46
2023-05-10T02:14:46.673Z,7.25
2023-05-10T02:16:28.024Z,7.02
2023-05-10T02:18:09.545Z,7.05
2023-05-10T02:19:50.882Z,7.55
2023-05-10T02:21:32.229Z,7.91
2023-05-10T02:23:13.536Z,8.23
2023-05-10T02:24:54.842Z,8.41
2023-05-10T02:26:36.165Z,8.57
2023-05-10T02:28:17.449Z,8.34
2023-05-10T02:29:58.713Z,7.80
2023-05-10T02:31:40.127Z,7.54
2023-05-10T02:33:21.474Z,7.06
2023-05-10T02:35:03.235Z,6.56
2023-05-10T02:36:44.576Z,6.38
2023-05-10T02:38:25.860Z,5.97
2023-05-10T02:40:07.152Z,5.92
2023-05-10T02:41:48.491Z,6.17
2023-05-10T02:43:29.772Z,6.31
2023-05-10T02:45:11.042Z,6.39
2023-05-10T02:46:52.396Z,6.57
2023-05-10T02:48:33.664Z,6.28
2023-05-10T02:50:15.138Z,5.95
2023-05-10T02:51:56.725Z,6.12
2023-05-10T02:53:37.984Z,5.70
2023-05-10T02:55:19.257Z,5.50
2023-05-10T02:57:00.529Z,5.47
2023-05-10T02:58:41.797Z,5.38
2023-05-10T03:00:23.108Z,5.59
2023-05-10T03:02:04.413Z,5.57
2023-05-10T03:03:45.678Z,5.82
2023-05-10T03:05:27.037Z,6.09
2023-05-10T03:07:08.366Z,6.55
2023-05-10T03:08:49.635Z,6.48
2023-05-10T03:10:30.910Z,6.12
2023-05-10T03:12:12.247Z,5.66
2023-05-10T03:13:53.545Z,5.79
2023-05-10T03:15:34.840Z,5.99
2023-05-10T03:17:16.166Z,6.28
2023-05-10T03:18:57.416Z,6.74
2023-05-10T03:20:38.688Z,7.06
2023-05-10T03:22:20.053Z,7.16
2023-05-10T03:24:01.383Z,7.53
2023-05-10T03:25:42.645Z,7.49
2023-05-10T03:27:23.988Z,7.49
2023-05-10T03:29:05.254Z,7.54
2023-05-10T03:30:46.514Z,7.62
2023-05-10T03:32:27.841Z,7.63
2023-05-10T03:34:09.161Z,7.13
2023-05-10T03:35:50.455Z,6.71
2023-05-10T03:37:31.775Z,6.70
2023-05-10T03:39:13.064Z,6.98
2023-05-10T03:40:54.374Z,7.09
2023-05-10T03:42:35.668Z,7.43
2023-05-10T03:44:16.987Z,7.39
2023-05-10T03:45:58.432Z,7.61
2023-05-10T03:47:39.760Z,7.18
2023-05-10T03:49:21.053Z,6.49
2023-05-10T03:51:02.357Z,5.92
2023-05-10T03:52:43.625Z,6.02
2023-05-10T03:54:24.934Z,6.07
2023-05-10T03:56:06.225Z,6.27
2023-05-10T03:57:47.519Z,6.74
2023-05-10T03:59:28.824Z,6.91
2023-05-10T04:01:10.128Z,6.79
2023-05-10T04:02:51.520Z,6.76
2023-05-10T04:04:32.833Z,6.97
2023-05-10T04:06:14.252Z,7.12
2023-05-10T04:07:55.595Z,7.48
2023-05-10T04:09:36.886Z,7.80
2023-05-10T04:11:18.175Z,8.14
2023-05-10T04:12:59.502Z,8.20
2023-05-10T04:14:40.860Z,8.08
2023-05-10T04:16:22.302Z,8.12
2023-05-10T04:18:04.781Z,8.27
2023-05-10T04:19:46.926Z,8.41
2023-05-10T04:21:28.233Z,8.51
2023-05-10T04:23:09.516Z,8.33
2023-05-10T04:24:50.826Z,7.82
2023-05-10T04:26:32.201Z,7.54
2023-05-10T04:29:55.034Z,7.50
2023-05-10T04:31:36.337Z,7.44
2023-05-10T04:33:17.697Z,6.96
2023-05-10T04:34:59.015Z,6.49
2023-05-10T04:36:40.344Z,6.29
2023-05-10T04:38:21.630Z,6.58
2023-05-10T04:40:02.912Z,6.53
2023-05-10T04:41:44.186Z,6.67
2023-05-10T04:43:25.476Z,6.88
2023-05-10T04:45:06.758Z,6.84
2023-05-10T04:46:48.185Z,6.82
2023-05-10T04:48:29.654Z,6.84
2023-05-10T04:50:10.960Z,6.63
2023-05-10T04:51:52.276Z,6.46
2023-05-10T04:53:33.555Z,6.33
2023-05-10T04:55:14.830Z,6.25
2023-05-10T04:56:56.162Z,6.41
2023-05-10T04:58:37.443Z,6.73
2023-05-10T05:00:18.883Z,7.22
2023-05-10T05:02:00.318Z,7.17
2023-05-10T05:03:41.763Z,7.11
2023-05-10T05:05:23.154Z,7.51
2023-05-10T05:07:04.467Z,7.67
2023-05-10T05:08:45.736Z,7.71
2023-05-10T05:10:27.023Z,7.11
2023-05-10T05:12:08.327Z,7.32
2023-05-10T05:13:49.697Z,7.46
2023-05-10T05:15:30.999Z,6.99
2023-05-10T05:17:12.288Z,6.51
2023-05-10T05:18:53.607Z,6.22
2023-05-10T05:20:34.934Z,6.25
2023-05-10T05:22:17.244Z,6.37
2023-05-10T05:23:59.608Z,6.41
2023-05-10T05:25:40.884Z,6.63
2023-05-10T05:27:22.207Z,6.67
2023-05-10T05:29:03.490Z,7.03
2023-05-10T05:30:44.787Z,7.29
2023-05-10T05:32:26.139Z,7.36
2023-05-10T05:34:07.464Z,7.69
2023-05-10T05:35:48.731Z,7.55
2023-05-10T05:37:30.202Z,6.96
2023-05-10T05:39:11.524Z,6.32
2023-05-10T05:40:52.826Z,6.29
2023-05-10T05:42:34.199Z,6.36
2023-05-10T05:44:15.486Z,6.88
2023-05-10T05:45:56.844Z,7.25
2023-05-10T05:47:38.241Z,7.64
2023-05-10T05:49:19.586Z,7.67
2023-05-10T05:51:00.922Z,7.80
2023-05-10T05:52:42.251Z,7.76
2023-05-10T05:54:23.547Z,7.85
2023-05-10T05:56:05.353Z,8.11
2023-05-10T05:57:46.929Z,8.37
2023-05-10T05:59:28.203Z,8.67
2023-05-10T06:01:09.526Z,8.94
2023-05-10T06:02:50.888Z,9.11
2023-05-10T06:04:32.451Z,9.22
2023-05-10T06:06:13.827Z,9.34
2023-05-10T06:07:55.095Z,9.44
2023-05-10T06:09:36.392Z,9.54
2023-05-10T06:11:17.680Z,9.70
2023-05-10T06:12:58.995Z,9.71
2023-05-10T06:14:40.298Z,9.76
2023-05-10T06:16:21.595Z,9.03
2023-05-10T06:18:02.995Z,9.07
2023-05-10T06:19:44.358Z,9.00
2023-05-10T06:21:25.647Z,8.76
2023-05-10T06:23:06.959Z,8.82
2023-05-10T06:24:48.272Z,8.91
2023-05-10T06:26:29.577Z,9.00
2023-05-10T06:28:10.877Z,8.77
2023-05-10T06:29:56.519Z,8.75
2023-05-10T06:31:43.618Z,8.79
2023-05-10T06:33:24.925Z,8.81
2023-05-10T06:35:06.220Z,9.06
2023-05-10T06:36:47.523Z,9.28
2023-05-10T06:38:28.799Z,9.48
2023-05-10T06:40:10.100Z,9.48
2023-05-10T06:41:51.394Z,9.44
2023-05-10T06:43:32.914Z,9.51
2023-05-10T06:45:14.355Z,9.43
2023-05-10T06:46:55.705Z,9.49
2023-05-10T06:48:37.009Z,9.68
2023-05-10T06:50:18.334Z,9.74
2023-05-10T06:51:59.642Z,9.63
2023-05-10T06:53:40.936Z,9.73
2023-05-10T06:55:22.223Z,9.63
2023-05-10T06:57:04.138Z,9.85
2023-05-10T06:58:47.175Z,9.82
2023-05-10T07:00:28.530Z,10.06
2023-05-10T07:02:09.921Z,10.00
2023-05-10T07:03:51.244Z,10.07
2023-05-10T07:05:32.648Z,9.97
2023-05-10T07:07:13.992Z,10.16
2023-05-10T07:08:55.329Z,9.98
2023-05-10T07:10:36.649Z,9.98
2023-05-10T07:12:18.026Z,9.93
2023-05-10T07:13:59.400Z,9.84
2023-05-10T07:15:40.714Z,9.71
2023-05-10T07:17:22.016Z,9.75
2023-05-10T07:19:03.355Z,9.75
2023-05-10T07:20:44.701Z,9.98
2023-05-10T07:22:25.976Z,9.98
2023-05-10T07:24:07.279Z,9.85
2023-05-10T07:25:48.570Z,9.89
2023-05-10T07:27:29.897Z,10.14
2023-05-10T07:29:11.215Z,10.22
2023-05-10T07:30:52.553Z,10.16
2023-05-10T07:32:34.119Z,10.14
2023-05-10T07:34:15.585Z,10.07
2023-05-10T07:35:56.952Z,9.97
2023-05-10T07:37:38.254Z,9.73
2023-05-10T07:39:26.702Z,9.72
2023-05-10T07:41:09.182Z,9.70
2023-05-10T07:42:50.477Z,9.47
2023-05-10T07:44:31.788Z,9.06
2023-05-10T07:46:13.196Z,9.07
2023-05-10T07:47:54.603Z,9.34
2023-05-10T07:49:35.929Z,9.54
2023-05-10T07:51:17.213Z,9.50
2023-05-10T07:52:58.511Z,9.77
2023-05-10T07:54:42.819Z,9.77
2023-05-10T07:56:25.712Z,9.63
2023-05-10T07:58:07.084Z,9.67
2023-05-10T07:59:48.484Z,9.54
2023-05-10T08:01:29.791Z,9.43
2023-05-10T08:03:11.239Z,9.26
2023-05-10T08:04:52.725Z,9.48
2023-05-10T08:06:34.034Z,9.61
2023-05-10T08:08:15.322Z,9.54
2023-05-10T08:09:56.633Z,9.72
2023-05-10T08:11:37.962Z,9.83
2023-05-10T08:13:19.330Z,9.71
2023-05-10T08:15:00.658Z,9.52
2023-05-10T08:16:41.929Z,9.76
2023-05-10T08:18:23.257Z,9.32
2023-05-10T08:20:04.605Z,9.47
2023-05-10T08:21:45.919Z,9.65
2023-05-10T08:23:27.594Z,9.60
2023-05-10T08:25:08.877Z,9.50
2023-05-10T08:26:50.219Z,9.56
2023-05-10T08:28:31.673Z,8.95
2023-05-10T08:30:12.965Z,9.02
2023-05-10T08:31:54.280Z,8.91
2023-05-10T08:33:35.681Z,8.64
2023-05-10T08:35:17.208Z,9.00
2023-05-10T08:36:58.713Z,9.16
2023-05-10T08:38:39.992Z,9.07
2023-05-10T08:40:21.278Z,8.67
2023-05-10T08:42:02.624Z,8.91
2023-05-10T08:43:43.932Z,8.80
2023-05-10T08:45:25.219Z,8.88
2023-05-10T08:47:06.611Z,8.58
2023-05-10T08:48:48.041Z,9.24
2023-05-10T08:50:29.341Z,8.91
2023-05-10T08:52:10.683Z,9.20
2023-05-10T08:53:52.013Z,9.07
2023-05-10T08:55:33.313Z,8.78
2023-05-10T08:57:14.853Z,8.61
2023-05-10T08:58:56.139Z,8.40
2023-05-10T09:00:37.455Z,8.42
2023-05-10T09:02:18.992Z,8.42
2023-05-10T09:04:00.406Z,8.33
2023-05-10T09:05:41.785Z,8.08
2023-05-10T09:07:23.122Z,8.08
2023-05-10T09:09:04.489Z,8.21
2023-05-10T09:10:45.773Z,8.48
2023-05-10T09:12:27.059Z,8.75
2023-05-10T09:14:08.350Z,8.94
2023-05-10T09:15:49.699Z,8.49
2023-05-10T09:17:31.226Z,8.38
2023-05-10T09:19:12.720Z,8.70
2023-05-10T09:20:54.158Z,8.79
2023-05-10T09:22:35.509Z,8.83
2023-05-10T09:24:16.794Z,9.18
2023-05-10T09:25:58.171Z,9.23
2023-05-10T09:27:39.488Z,9.54
2023-05-10T09:29:20.770Z,9.24
2023-05-10T09:31:02.282Z,9.44
2023-05-10T09:32:43.943Z,9.72
2023-05-10T09:34:25.364Z,10.05
2023-05-10T09:36:06.733Z,10.24
2023-05-10T09:37:48.067Z,10.39
2023-05-10T09:39:29.387Z,10.52
2023-05-10T09:41:10.686Z,10.77
2023-05-10T09:42:52.083Z,10.68
2023-05-10T09:44:33.518Z,10.72
2023-05-10T09:46:14.878Z,11.09
2023-05-10T09:47:56.253Z,11.08
2023-05-10T09:49:37.638Z,10.62
2023-05-10T09:51:18.985Z,10.18
2023-05-10T09:53:00.303Z,9.74
2023-05-10T09:54:41.665Z,9.66
2023-05-10T09:56:22.974Z,10.14
2023-05-10T09:58:04.268Z,10.12
2023-05-10T09:59:45.592Z,10.46
2023-05-10T10:01:27.004Z,10.28
2023-05-10T10:03:08.428Z,10.38
2023-05-10T10:04:49.859Z,10.72
2023-05-10T10:06:31.408Z,10.24
2023-05-10T10:08:12.771Z,9.89
2023-05-10T10:09:54.046Z,9.81
2023-05-10T10:11:35.349Z,9.64
2023-05-10T10:13:16.670Z,9.81
2023-05-10T10:14:57.960Z,10.01
2023-05-10T10:16:45.987Z,10.17
2023-05-10T10:18:36.955Z,9.98
2023-05-10T10:20:18.592Z,10.04
2023-05-10T10:22:00.097Z,10.20
2023-05-10T10:23:41.471Z,10.08
2023-05-10T10:25:22.785Z,10.11
2023-05-10T10:27:04.170Z,9.56
2023-05-10T10:28:45.482Z,9.18
2023-05-10T10:30:26.811Z,9.24
2023-05-10T10:32:08.120Z,8.90
2023-05-10T10:33:49.440Z,8.97
2023-05-10T10:35:30.739Z,9.49
2023-05-10T10:37:12.035Z,9.39
2023-05-10T10:38:53.481Z,9.50
2023-05-10T10:40:35.247Z,9.49
2023-05-10T10:42:16.598Z,9.64
2023-05-10T10:43:58.637Z,9.71
2023-05-10T10:45:41.828Z,10.12
2023-05-10T10:47:23.529Z,10.15
2023-05-10T10:49:04.854Z,10.14
2023-05-10T10:50:46.150Z,10.33
2023-05-10T10:52:27.612Z,9.98
2023-05-10T10:54:09.160Z,10.21
2023-05-10T10:55:50.731Z,10.06
2023-05-10T10:57:32.064Z,9.91
2023-05-10T10:59:13.382Z,9.70
2023-05-10T11:00:54.800Z,10.00
2023-05-10T11:02:36.326Z,9.78
2023-05-10T11:04:17.947Z,9.98
2023-05-10T11:05:59.292Z,10.19
2023-05-10T11:07:40.656Z,10.24
2023-05-10T11:09:22.022Z,10.25
2023-05-10T11:11:03.377Z,10.45
2023-05-10T11:12:44.726Z,10.16
2023-05-10T11:14:26.038Z,9.81
2023-05-10T11:16:07.521Z,9.56
2023-05-10T11:17:48.971Z,9.24
2023-05-10T11:19:30.307Z,9.63
2023-05-10T11:21:11.701Z,9.25
2023-05-10T11:22:53.117Z,9.53
2023-05-10T11:24:34.396Z,9.66
2023-05-10T11:26:15.791Z,9.83
2023-05-10T11:27:57.212Z,10.21
2023-05-10T11:29:40.541Z,10.78
2023-05-10T11:31:22.007Z,11.19
2023-05-10T11:33:03.387Z,11.07
2023-05-10T11:34:44.760Z,10.92
2023-05-10T11:36:26.113Z,10.77
2023-05-10T11:38:07.429Z,11.13
2023-05-10T11:39:48.990Z,11.67
2023-05-10T11:41:30.934Z,11.70
2023-05-10T11:43:12.401Z,11.98
2023-05-10T11:44:53.886Z,12.44
2023-05-10T11:46:35.404Z,12.13
2023-05-10T11:48:16.715Z,12.76
2023-05-10T11:49:58.070Z,12.67
2023-05-10T11:51:39.356Z,12.80
2023-05-10T11:53:20.752Z,12.89
2023-05-10T11:55:02.058Z,13.10
2023-05-10T11:56:43.688Z,13.46
2023-05-10T11:58:25.290Z,13.32
2023-05-10T12:00:06.809Z,13.10
2023-05-10T12:01:48.278Z,13.40
2023-05-10T12:03:29.725Z,13.54
2023-05-10T12:05:11.286Z,13.43
2023-05-10T12:06:52.958Z,12.39
2023-05-10T12:08:34.505Z,11.64
2023-05-10T12:10:16.499Z,11.26
2023-05-10T12:11:58.213Z,11.63
2023-05-10T12:13:39.805Z,11.79
2023-05-10T12:15:21.317Z,11.83
2023-05-10T12:17:02.849Z,11.76
2023-05-10T12:18:44.226Z,11.68
2023-05-10T12:20:25.558Z,11.18
2023-05-10T12:22:06.902Z,11.27
2023-05-10T12:23:48.269Z,11.03
2023-05-10T12:25:29.560Z,11.40
2023-05-10T12:27:10.841Z,11.32
2023-05-10T12:28:52.457Z,10.91
2023-05-10T12:30:34.073Z,11.21
2023-05-10T12:32:15.395Z,11.02
2023-05-10T12:33:56.876Z,10.90
2023-05-10T12:35:38.376Z,11.28
2023-05-10T12:37:19.648Z,11.35
2023-05-10T12:39:00.955Z,11.53
2023-05-10T12:40:42.638Z,11.59
2023-05-10T12:42:23.964Z,11.69
2023-05-10T12:44:05.262Z,12.32
2023-05-10T12:45:46.616Z,12.58
2023-05-10T12:47:27.969Z,12.38
2023-05-10T12:49:09.846Z,12.01
2023-05-10T12:50:51.632Z,12.17
2023-05-10T12:52:33.214Z,11.93
2023-05-10T12:54:14.484Z,11.92
2023-05-10T12:55:55.791Z,11.99
2023-05-10T12:57:37.219Z,11.93
2023-05-10T12:59:18.595Z,11.35
2023-05-10T13:00:59.945Z,11.13
2023-05-10T13:02:41.992Z,11.27
2023-05-10T13:04:23.606Z,11.48
2023-05-10T13:06:05.061Z,11.61
2023-05-10T13:07:46.494Z,11.58
2023-05-10T13:09:27.797Z,11.63
2023-05-10T13:11:09.111Z,11.99
2023-05-10T13:12:50.452Z,12.17
2023-05-10T13:14:31.770Z,11.80
2023-05-10T13:16:13.090Z,11.36
2023-05-10T13:17:54.487Z,11.28
2023-05-10T13:19:36.085Z,10.94
2023-05-10T13:21:17.688Z,11.13
2023-05-10T13:22:59.007Z,11.11
2023-05-10T13:24:40.327Z,11.41
2023-05-10T13:26:21.603Z,11.20
2023-05-10T13:28:02.900Z,11.81
2023-05-10T13:29:45.294Z,11.59
2023-05-10T13:31:28.030Z,12.02
2023-05-10T13:33:09.693Z,11.62
2023-05-10T13:34:51.112Z,12.05
2023-05-10T13:36:32.565Z,11.82
2023-05-10T13:38:13.878Z,11.60
2023-05-10T13:39:55.356Z,12.17
2023-05-10T13:41:36.759Z,12.29
2023-05-10T13:43:18.077Z,11.96
2023-05-10T13:44:59.368Z,11.14
2023-05-10T13:46:40.707Z,10.58
2023-05-10T13:48:22.065Z,10.75
2023-05-10T13:50:03.334Z,10.66
2023-05-10T13:51:44.623Z,10.40
2023-05-10T13:53:25.931Z,10.04
2023-05-10T13:55:07.203Z,10.09
2023-05-10T13:56:48.537Z,10.50
2023-05-10T13:58:29.823Z,10.27
2023-05-10T14:00:11.125Z,9.88
2023-05-10T14:01:52.792Z,9.77
2023-05-10T14:03:34.457Z,9.63
2023-05-10T14:05:16.996Z,9.78
2023-05-10T14:06:59.459Z,10.34
2023-05-10T14:08:40.772Z,9.82
2023-05-10T14:10:22.110Z,10.10
2023-05-10T14:12:03.402Z,9.99
2023-05-10T14:13:44.697Z,9.84
2023-05-10T14:15:25.985Z,10.43
2023-05-10T14:17:08.235Z,10.19
2023-05-10T14:18:50.495Z,10.04
2023-05-10T14:20:31.868Z,10.02
2023-05-10T14:22:13.140Z,9.86
2023-05-10T14:23:54.447Z,9.83
2023-05-10T14:25:35.748Z,9.49
2023-05-10T14:27:17.068Z,9.77
2023-05-10T14:28:58.822Z,9.45
2023-05-10T14:30:40.459Z,9.69
2023-05-10T14:32:21.922Z,9.58
2023-05-10T14:34:03.526Z,9.86
2023-05-10T14:35:45.084Z,9.72
2023-05-10T14:37:26.484Z,9.53
2023-05-10T14:39:07.798Z,9.53
2023-05-10T14:40:49.274Z,9.05
2023-05-10T14:42:30.829Z,8.91
2023-05-10T14:44:12.108Z,8.84
2023-05-10T14:45:53.609Z,8.98
2023-05-10T14:47:35.057Z,8.79
2023-05-10T14:49:16.483Z,8.60
2023-05-10T14:50:58.101Z,8.39
2023-05-10T14:52:39.523Z,8.42
2023-05-10T14:54:20.918Z,8.59
2023-05-10T14:56:02.270Z,8.43
2023-05-10T14:57:43.603Z,8.48
2023-05-10T14:59:24.949Z,8.74
2023-05-10T15:01:06.681Z,8.66
2023-05-10T15:02:48.416Z,8.52
2023-05-10T15:04:30.494Z,8.59
2023-05-10T15:06:12.663Z,8.38
2023-05-10T15:07:54.130Z,8.67
2023-05-10T15:09:35.559Z,8.94
2023-05-10T15:11:16.973Z,8.83
2023-05-10T15:12:58.495Z,9.03
2023-05-10T15:14:39.926Z,8.61
2023-05-10T15:16:21.322Z,8.20
2023-05-10T15:18:02.677Z,8.10
2023-05-10T15:19:43.943Z,8.36
2023-05-10T15:21:25.291Z,8.62
2023-05-10T15:23:06.629Z,8.37
2023-05-10T15:24:47.930Z,8.35
2023-05-10T15:26:29.237Z,8.95
2023-05-10T15:28:10.521Z,8.99
2023-05-10T15:29:51.859Z,9.43
2023-05-10T15:31:33.244Z,9.90
2023-05-10T15:33:14.565Z,10.10
2023-05-10T15:34:55.860Z,9.70
2023-05-10T15:36:37.133Z,10.00
2023-05-10T15:38:18.452Z,10.14
2023-05-10T15:39:59.744Z,8.84
2023-05-10T15:41:41.055Z,8.13
2023-05-10T15:43:22.329Z,8.13
2023-05-10T15:45:03.602Z,7.88
2023-05-10T15:46:45.487Z,7.64
2023-05-10T15:48:27.282Z,7.17
2023-05-10T15:50:08.624Z,6.95
2023-05-10T15:51:49.935Z,6.67
2023-05-10T15:53:31.238Z,6.83
2023-05-10T15:55:12.591Z,6.40
2023-05-10T15:56:53.978Z,6.27
2023-05-10T15:58:35.303Z,6.34
2023-05-10T16:00:16.598Z,6.33
2023-05-10T16:01:57.976Z,6.44
2023-05-10T16:03:39.350Z,6.52
2023-05-10T16:05:20.667Z,6.99
2023-05-10T16:07:01.989Z,7.25
2023-05-10T16:08:43.301Z,7.71
2023-05-10T16:10:24.594Z,8.36
2023-05-10T16:12:05.886Z,8.79
2023-05-10T16:13:47.420Z,9.10
2023-05-10T16:15:28.976Z,9.07
2023-05-10T16:17:10.594Z,9.28
2023-05-10T16:18:52.240Z,9.43
2023-05-10T16:20:33.648Z,9.48
2023-05-10T16:22:14.942Z,9.07
2023-05-10T16:23:56.237Z,8.64
2023-05-10T16:25:37.641Z,8.33
2023-05-10T16:27:18.980Z,8.54
2023-05-10T16:29:00.238Z,8.74
2023-05-10T16:30:41.637Z,8.82
2023-05-10T16:32:23.050Z,8.43
2023-05-10T16:34:04.419Z,8.65
2023-05-10T16:35:45.707Z,8.47
2023-05-10T16:37:26.986Z,8.36
2023-05-10T16:39:08.368Z,8.72
2023-05-10T16:40:50.057Z,8.99
2023-05-10T16:42:31.386Z,8.64
2023-05-10T16:44:12.691Z,8.37
2023-05-10T16:45:54.259Z,8.21
2023-05-10T16:47:35.958Z,8.19
2023-05-10T16:49:17.576Z,7.88
2023-05-10T16:50:58.845Z,7.66
2023-05-10T16:52:40.140Z,7.73
2023-05-10T16:54:21.449Z,7.33
2023-05-10T16:56:02.715Z,7.11
2023-05-10T16:57:44.254Z,6.85
2023-05-10T16:59:25.780Z,6.72
2023-05-10T17:01:07.259Z,6.75
2023-05-10T17:02:48.771Z,7.03
2023-05-10T17:04:30.187Z,7.30
2023-05-10T17:06:11.548Z,7.69
2023-05-10T17:07:53.073Z,8.20
2023-05-10T17:09:34.449Z,8.19
2023-05-10T17:11:15.810Z,8.56
2023-05-10T17:12:57.106Z,8.53
2023-05-10T17:14:38.425Z,8.39
2023-05-10T17:16:19.826Z,8.54
2023-05-10T17:18:01.216Z,8.75
2023-05-10T17:19:42.514Z,8.71
2023-05-10T17:21:23.895Z,8.55
2023-05-10T17:23:05.179Z,8.78
2023-05-10T17:24:46.481Z,8.74
2023-05-10T17:26:27.805Z,8.64
2023-05-10T17:28:09.130Z,8.80
2023-05-10T17:29:50.662Z,9.02
2023-05-10T17:31:32.309Z,9.02
2023-05-10T17:33:13.655Z,9.20
2023-05-10T17:34:54.971Z,9.43
2023-05-10T17:36:36.303Z,9.55
2023-05-10T17:38:17.622Z,9.35
2023-05-10T17:39:58.924Z,9.34
2023-05-10T17:41:40.204Z,9.01
2023-05-10T17:43:21.481Z,8.64
2023-05-10T17:45:02.805Z,8.53
2023-05-10T17:46:44.125Z,8.26
2023-05-10T17:48:25.441Z,8.25
2023-05-10T17:50:06.856Z,8.34
2023-05-10T17:51:48.157Z,8.05
2023-05-10T17:53:29.461Z,7.99
2023-05-10T17:55:10.780Z,7.86
2023-05-10T17:56:52.070Z,8.20
2023-05-10T17:58:33.349Z,8.20
2023-05-10T18:00:14.653Z,8.47
2023-05-10T18:01:56.086Z,8.13
2023-05-10T18:03:37.356Z,7.55
2023-05-10T18:05:18.962Z,7.28
2023-05-10T18:07:00.540Z,7.18
2023-05-10T18:08:41.847Z,7.15
2023-05-10T18:10:23.182Z,7.60
2023-05-10T18:12:04.464Z,7.45
2023-05-10T18:13:45.748Z,7.45
2023-05-10T18:15:27.049Z,7.49
2023-05-10T18:17:08.420Z,7.54
2023-05-10T18:18:49.807Z,6.82
2023-05-10T18:20:31.104Z,6.60
2023-05-10T18:22:12.385Z,6.74
2023-05-10T18:23:53.697Z,7.01
2023-05-10T18:25:34.992Z,6.52
2023-05-10T18:27:16.269Z,6.33
2023-05-10T18:29:01.368Z,6.26
2023-05-10T18:30:43.199Z,6.72
2023-05-10T18:32:24.510Z,6.95
2023-05-10T18:34:05.825Z,6.22
2023-05-10T18:35:47.078Z,6.12
2023-05-10T18:37:28.351Z,6.19
2023-05-10T18:39:09.667Z,6.51
2023-05-10T18:40:50.947Z,6.77
2023-05-10T18:42:32.221Z,6.86
2023-05-10T18:44:13.543Z,6.89
2023-05-10T18:45:54.847Z,6.98
2023-05-10T18:47:36.176Z,7.19
2023-05-10T18:49:17.510Z,7.30
2023-05-10T18:50:58.808Z,7.55
2023-05-10T18:52:40.301Z,7.64
2023-05-10T18:54:21.762Z,7.74
2023-05-10T18:56:03.054Z,7.90
2023-05-10T18:57:44.375Z,7.72
2023-05-10T18:59:25.666Z,7.92
2023-05-10T19:01:06.956Z,8.23
2023-05-10T19:02:48.319Z,8.19
2023-05-10T19:04:29.753Z,8.01
2023-05-10T19:06:11.084Z,8.03
2023-05-10T19:07:52.386Z,8.05
2023-05-10T19:09:33.681Z,7.67
2023-05-10T19:11:14.992Z,7.62
2023-05-10T19:12:56.305Z,7.30
2023-05-10T19:14:37.591Z,7.64
2023-05-10T19:16:24.103Z,7.54
2023-05-10T19:18:08.708Z,7.72
2023-05-10T19:19:50.708Z,7.40
2023-05-10T19:21:33.068Z,7.10
2023-05-10T19:23:15.032Z,7.08
2023-05-10T19:24:57.522Z,6.91
2023-05-10T19:26:38.867Z,7.13
2023-05-10T19:28:20.182Z,7.52
2023-05-10T19:30:01.585Z,7.41
2023-05-10T19:31:44.223Z,7.68
2023-05-10T19:33:26.132Z,7.23
2023-05-10T19:35:07.495Z,7.34
2023-05-10T19:36:48.769Z,7.68
2023-05-10T19:38:30.071Z,7.49
2023-05-10T19:40:11.875Z,7.12
2023-05-10T19:41:53.222Z,6.82
2023-05-10T19:43:34.667Z,6.17
2023-05-10T19:45:16.658Z,6.31
2023-05-10T19:46:58.336Z,6.38
2023-05-10T19:48:39.699Z,6.64
2023-05-10T19:50:20.980Z,6.58
2023-05-10T19:52:02.297Z,6.96
2023-05-10T19:53:43.599Z,7.01
2023-05-10T19:55:24.924Z,7.10
2023-05-10T19:57:06.220Z,6.93
2023-05-10T19:58:47.498Z,6.83
2023-05-10T20:00:28.787Z,6.87
2023-05-10T20:02:10.100Z,6.94
2023-05-10T20:03:51.459Z,6.56
2023-05-10T20:05:32.798Z,6.15
2023-05-10T20:07:14.101Z,6.29
2023-05-10T20:08:55.392Z,6.34
2023-05-10T20:10:36.693Z,5.99
2023-05-10T20:12:17.980Z,6.29
2023-05-10T20:13:59.312Z,6.64
2023-05-10T20:15:40.601Z,6.67
2023-05-10T20:17:22.065Z,6.92
2023-05-10T20:19:03.546Z,7.17
2023-05-10T20:20:44.926Z,7.03
2023-05-10T20:22:26.239Z,6.97
2023-05-10T20:24:07.507Z,6.89
2023-05-10T20:25:48.824Z,6.93
2023-05-10T20:27:30.130Z,7.28
2023-05-10T20:29:11.505Z,7.48
2023-05-10T20:30:53.291Z,7.10
2023-05-10T20:32:34.705Z,6.43
2023-05-10T20:34:16.020Z,6.84
2023-05-10T20:35:57.348Z,6.84
2023-05-10T20:37:38.649Z,7.08
2023-05-10T20:39:19.943Z,6.81
2023-05-10T20:41:01.254Z,6.59
2023-05-10T20:42:42.532Z,6.70
2023-05-10T20:44:23.878Z,6.68
2023-05-10T20:46:05.549Z,6.61
2023-05-10T20:47:47.057Z,6.78
2023-05-10T20:49:28.359Z,6.60
2023-05-10T20:51:09.663Z,6.27
2023-05-10T20:52:50.961Z,6.37
2023-05-10T20:54:32.255Z,6.62
2023-05-10T20:56:13.605Z,6.43
2023-05-10T20:57:54.979Z,6.44
2023-05-10T20:59:36.268Z,6.60
2023-05-10T21:01:17.653Z,6.95
2023-05-10T21:02:59.008Z,7.26
2023-05-10T21:04:40.467Z,7.17
2023-05-10T21:06:21.974Z,7.29
2023-05-10T21:08:03.284Z,7.14
2023-05-10T21:09:44.604Z,7.12
2023-05-10T21:11:25.893Z,7.49
2023-05-10T21:13:07.211Z,7.63
2023-05-10T21:14:48.484Z,7.51
2023-05-10T21:16:29.761Z,7.57
2023-05-10T21:18:11.121Z,7.64
2023-05-10T21:19:52.410Z,7.83
2023-05-10T21:21:33.720Z,7.50
2023-05-10T21:23:15.015Z,7.16
2023-05-10T21:24:56.304Z,6.77
2023-05-10T21:26:37.592Z,6.63
2023-05-10T21:28:18.911Z,6.77
2023-05-10T21:30:00.217Z,6.59
2023-05-10T21:31:41.582Z,6.53
2023-05-10T21:33:22.947Z,6.34
2023-05-10T21:35:04.277Z,6.01
2023-05-10T21:36:45.576Z,6.11
2023-05-10T21:38:26.865Z,6.16
2023-05-10T21:40:08.182Z,6.33
2023-05-10T21:41:49.460Z,6.33
2023-05-10T21:43:30.751Z,6.38
2023-05-10T21:45:12.058Z,6.24
2023-05-10T21:46:53.358Z,6.24
2023-05-10T21:48:34.658Z,6.38
2023-05-10T21:50:16.211Z,6.30
2023-05-10T21:51:57.687Z,6.26
2023-05-10T21:53:38.997Z,6.58
2023-05-10T21:55:20.372Z,6.78
2023-05-10T21:57:01.673Z,6.98
2023-05-10T21:58:42.987Z,7.08
2023-05-10T22:00:24.256Z,7.12
2023-05-10T22:02:05.630Z,7.17
2023-05-10T22:03:47.088Z,7.20
2023-05-10T22:05:28.464Z,7.28
2023-05-10T22:07:09.818Z,7.36
2023-05-10T22:08:51.137Z,7.31
2023-05-10T22:10:32.499Z,7.35
2023-05-10T22:12:13.824Z,7.35
2023-05-10T22:13:55.140Z,7.34
2023-05-10T22:15:36.737Z,7.37
2023-05-10T22:17:18.130Z,7.37
2023-05-10T22:18:59.483Z,7.12
2023-05-10T22:20:40.798Z,7.08
2023-05-10T22:22:22.142Z,7.23
2023-05-10T22:24:03.477Z,7.50